Time;durP1;ratioP1;P1;durP2;ratioP2;P2;SDS_P1;SDS_P2;PMS_P1;PMS_P2;Temp;Humidity;BMP_temperature;BMP_pressure;BME280_temperature;BME280_humidity;BME280_pressure;Samples;Min_cycle;Max_cycle;Signal;HPM_P1;HPM_P2
2024/02/15 00:01:47;;;;;;;13.70;5.20;;;;;;;12.05;100.00;101531.88;10334560;28;20062;-74
2024/02/15 00:06:48;;;;;;;7.45;4.28;;;;;;;12.14;100.00;101526.34;10334848;28;20478;-75
2024/02/15 00:11:48;;;;;;;14.98;5.43;;;;;;;12.12;100.00;101525.69;10335403;28;20126;-75
2024/02/15 00:16:49;;;;;;;8.77;4.97;;;;;;;12.09;100.00;101519.63;10333682;28;20036;-75
2024/02/15 00:21:49;;;;;;;11.45;5.07;;;;;;;12.16;100.00;101522.41;10334682;28;20121;-75
2024/02/15 00:26:49;;;;;;;12.35;6.38;;;;;;;12.20;100.00;101525.56;10335087;28;20043;-75
2024/02/15 00:31:50;;;;;;;6.20;5.32;;;;;;;12.16;100.00;101521.56;10331972;28;20570;-75
2024/02/15 00:36:50;;;;;;;11.20;5.82;;;;;;;12.19;100.00;101519.31;10349434;28;20038;-75
2024/02/15 00:41:51;;;;;;;8.32;6.18;;;;;;;12.23;100.00;101509.72;10333667;28;20062;-76
2024/02/15 00:46:51;;;;;;;17.27;7.07;;;;;;;12.24;100.00;101510.56;10349876;28;20068;-75
2024/02/15 00:51:51;;;;;;;8.82;6.57;;;;;;;12.25;100.00;101507.69;10332528;28;20460;-75
2024/02/15 00:56:52;;;;;;;18.05;6.32;;;;;;;12.32;100.00;101513.16;10333176;28;20038;-74
2024/02/15 01:01:53;;;;;;;14.52;6.53;;;;;;;12.33;100.00;101512.97;10332377;28;20092;-74
2024/02/15 01:06:53;;;;;;;7.53;5.88;;;;;;;12.22;100.00;101502.63;10332541;28;20042;-75
2024/02/15 01:11:54;;;;;;;7.68;6.25;;;;;;;12.18;100.00;101503.19;10330979;28;20035;-75
2024/02/15 01:16:54;;;;;;;14.95;6.60;;;;;;;12.17;100.00;101493.38;10333134;28;20131;-75
2024/02/15 01:21:55;;;;;;;12.50;7.18;;;;;;;12.01;100.00;101472.75;10331394;28;20387;-75
2024/02/15 01:26:56;;;;;;;12.15;8.02;;;;;;;12.05;100.00;101477.59;10332278;28;20039;-75
2024/02/15 01:31:57;;;;;;;9.85;6.07;;;;;;;12.07;100.00;101477.41;10332535;28;20137;-75
2024/02/15 01:36:57;;;;;;;7.10;5.32;;;;;;;11.99;100.00;101474.81;10332383;28;20062;-76
2024/02/15 01:41:58;;;;;;;7.10;5.00;;;;;;;11.82;100.00;101472.31;10332166;28;20548;-75
2024/02/15 01:47:00;;;;;;;8.80;6.00;;;;;;;11.82;100.00;101469.59;10346369;28;20042;-74
2024/02/15 01:52:00;;;;;;;10.93;5.65;;;;;;;11.88;100.00;101464.47;10330719;28;20062;-75
2024/02/15 01:57:01;;;;;;;14.68;7.30;;;;;;;11.89;100.00;101464.25;10330475;28;20065;-75
2024/02/15 02:02:02;;;;;;;13.13;6.32;;;;;;;11.82;100.00;101457.91;10331697;28;20031;-74
2024/02/15 02:07:03;;;;;;;8.57;5.28;;;;;;;11.88;100.00;101456.31;10329838;28;20467;-75
2024/02/15 02:12:03;;;;;;;11.68;6.43;;;;;;;11.91;100.00;101453.22;10331270;28;20022;-75
2024/02/15 02:17:13;;;;;;;7.32;4.70;;;;;;;12.06;100.00;101445.84;10339062;28;20120;-74
2024/02/15 02:22:14;;;;;;;8.10;6.00;;;;;;;12.15;100.00;101443.84;10338493;28;20461;-74
2024/02/15 02:27:15;;;;;;;13.07;6.45;;;;;;;12.19;100.00;101434.28;10339685;28;20040;-74
2024/02/15 02:32:16;;;;;;;9.70;5.38;;;;;;;12.18;100.00;101446.19;10338606;28;20457;-74
2024/02/15 02:37:17;;;;;;;6.30;5.38;;;;;;;12.16;100.00;101440.13;10321304;28;20046;-76
2024/02/15 02:42:17;;;;;;;14.38;7.05;;;;;;;12.09;100.00;101449.03;10338120;28;20121;-75
2024/02/15 02:47:18;;;;;;;10.90;6.57;;;;;;;12.16;100.00;101442.84;10338849;28;20451;-75
2024/02/15 02:52:18;;;;;;;8.00;5.75;;;;;;;12.21;100.00;101440.34;10337608;28;20038;-74
2024/02/15 02:57:19;;;;;;;13.02;7.25;;;;;;;12.17;100.00;101433.66;10336281;28;20048;-75
2024/02/15 03:02:19;;;;;;;9.18;6.72;;;;;;;12.24;100.00;101438.09;10336551;28;20596;-76
2024/02/15 03:07:19;;;;;;;13.65;6.28;;;;;;;12.16;100.00;101438.25;10337295;28;20034;-74
2024/02/15 03:12:20;;;;;;;12.23;6.78;;;;;;;12.20;100.00;101441.41;10351281;28;20030;-74
2024/02/15 03:17:21;;;;;;;7.40;5.50;;;;;;;12.09;100.00;101427.31;10335496;28;20094;-74
2024/02/15 03:22:23;;;;;;;6.43;5.00;;;;;;;11.94;100.00;101423.81;10336982;28;20454;-74
2024/02/15 03:27:23;;;;;;;7.70;6.30;;;;;;;11.94;100.00;101423.81;10335411;28;20034;-74
2024/02/15 03:32:24;;;;;;;13.23;6.80;;;;;;;11.99;100.00;101425.94;10334634;28;20054;-74
2024/02/15 03:37:24;;;;;;;11.35;6.30;;;;;;;11.92;100.00;101430.47;10368896;28;20037;-73
2024/02/15 03:42:25;;;;;;;9.10;8.15;;;;;;;11.88;100.00;101407.47;10367568;28;20069;-72
2024/02/15 03:47:28;;;;;;;5.82;4.10;;;;;;;11.85;100.00;101406.00;10335166;28;20113;-72
2024/02/15 03:52:32;;;;;;;0.90;0.90;;;;;;;11.88;100.00;101405.59;10335091;28;20031;-72
2024/02/15 03:57:33;;;;;;;0.93;0.93;;;;;;;11.88;100.00;101412.91;10335366;28;20034;-72
2024/02/15 04:02:35;;;;;;;1.33;1.02;;;;;;;11.92;100.00;101398.75;10334663;28;20113;-72
2024/02/15 04:07:36;;;;;;;1.35;1.30;;;;;;;11.90;100.00;101402.69;10317763;28;20471;-73
2024/02/15 04:12:37;;;;;;;0.50;0.50;;;;;;;11.85;100.00;101406.81;10335195;28;20042;-73
2024/02/15 04:17:38;;;;;;;1.63;1.52;;;;;;;11.85;100.00;101395.97;10349150;28;20394;-73
2024/02/15 04:22:38;;;;;;;1.05;1.05;;;;;;;11.83;100.00;101384.41;10335088;28;20385;-72
2024/02/15 04:27:39;;;;;;;1.00;1.00;;;;;;;11.89;100.00;101401.00;10332877;28;20034;-72
2024/02/15 04:32:40;;;;;;;1.48;1.42;;;;;;;11.88;100.00;101405.59;10347992;28;20150;-72
2024/02/15 04:37:40;;;;;;;1.02;1.02;;;;;;;11.95;100.00;101417.34;10332979;28;20166;-72
2024/02/15 04:42:41;;;;;;;0.70;0.70;;;;;;;11.94;100.00;101412.13;10333289;28;20471;-72
2024/02/15 04:47:42;;;;;;;0.60;0.60;;;;;;;11.81;100.00;101401.97;10317064;28;20034;-73
2024/02/15 04:52:45;;;;;;;0.60;0.60;;;;;;;11.78;100.00;101367.06;10331883;28;20486;-74
2024/02/15 04:57:48;;;;;;;0.60;0.60;;;;;;;11.74;100.00;101358.47;10332241;28;20463;-73
2024/02/15 05:02:49;;;;;;;0.93;0.93;;;;;;;11.79;100.00;101377.72;10347160;28;20042;-73
2024/02/15 05:07:50;;;;;;;0.50;0.50;;;;;;;11.84;100.00;101364.44;10331241;28;20038;-73
2024/02/15 05:12:50;;;;;;;0.90;0.90;;;;;;;11.88;100.00;101354.03;10332604;28;20038;-73
2024/02/15 05:17:51;;;;;;;0.60;0.60;;;;;;;11.86;100.00;101354.22;10332125;28;20422;-73
2024/02/15 05:22:51;;;;;;;0.70;0.70;;;;;;;11.87;100.00;101349.66;10332369;28;20057;-73
2024/02/15 05:27:55;;;;;;;1.05;1.05;;;;;;;11.85;100.00;101341.69;10346880;28;20034;-72
2024/02/15 05:32:56;;;;;;;0.57;0.57;;;;;;;11.88;100.00;101342.34;10251569;28;20057;-74
2024/02/15 05:37:56;;;;;;;0.70;0.70;;;;;;;11.92;100.00;101340.91;10291088;28;20066;-72
2024/02/15 05:42:58;;;;;;;1.38;1.38;;;;;;;11.88;100.00;101347.78;10290489;28;20046;-72
2024/02/15 05:47:59;;;;;;;1.10;1.10;;;;;;;11.78;100.00;101351.63;10292470;28;20482;-73
2024/02/15 05:53:01;;;;;;;1.83;1.83;;;;;;;11.79;100.00;101326.16;10299858;28;20053;-73
2024/02/15 05:58:02;;;;;;;1.80;1.70;;;;;;;11.78;100.00;101329.09;10298481;28;20038;-74
2024/02/15 06:03:03;;;;;;;0.60;0.60;;;;;;;11.77;100.00;101335.53;10299077;28;20438;-76
2024/02/15 06:08:04;;;;;;;0.40;0.40;;;;;;;11.78;100.00;101332.63;10298608;28;20125;-72
2024/02/15 06:13:04;;;;;;;0.73;0.73;;;;;;;11.79;100.00;101312.59;10298744;28;20492;-74
2024/02/15 06:18:08;;;;;;;1.00;1.00;;;;;;;11.88;100.00;101323.34;10298025;28;20110;-74
2024/02/15 06:23:09;;;;;;;1.15;1.05;;;;;;;11.77;100.00;101319.25;10298028;28;20174;-74
2024/02/15 06:44:07;;;;;;;0.50;0.50;;;;;;;11.89;100.00;101353.00;10336400;28;20046;-75
2024/02/15 06:49:07;;;;;;;1.45;1.45;;;;;;;11.87;100.00;101330.66;10338524;28;20376;-74
2024/02/15 06:54:08;;;;;;;1.65;1.55;;;;;;;11.81;100.00;101328.69;10336005;28;20058;-75
2024/02/15 06:59:16;;;;;;;1.08;1.08;;;;;;;11.85;100.00;101324.56;10335911;28;20422;-75
2024/02/15 07:04:16;;;;;;;1.55;1.55;;;;;;;11.79;100.00;101334.31;10337514;28;20125;-75
2024/02/15 07:09:20;;;;;;;2.47;2.38;;;;;;;11.89;100.00;101344.03;10336857;28;20038;-74
2024/02/15 07:14:20;;;;;;;0.60;0.60;;;;;;;11.86;100.00;101345.25;10338198;28;20096;-74
2024/02/15 07:19:20;;;;;;;1.92;1.83;;;;;;;11.81;100.00;101345.81;10337480;28;20100;-74
2024/02/15 07:24:21;;;;;;;0.90;0.85;;;;;;;11.75;100.00;101338.44;10336530;28;20061;-73
2024/02/15 07:29:23;;;;;;;1.05;1.05;;;;;;;11.81;100.00;101340.38;10335507;28;20058;-73
2024/02/15 07:34:25;;;;;;;0.77;0.77;;;;;;;11.89;100.00;101322.31;10352576;28;20140;-73
2024/02/15 07:39:27;;;;;;;0.70;0.70;;;;;;;11.86;100.00;101328.97;10334927;28;20034;-74
2024/02/15 07:44:30;;;;;;;1.90;1.90;;;;;;;11.91;100.00;101328.41;10335930;28;20062;-73
2024/02/15 07:49:30;;;;;;;0.98;0.98;;;;;;;11.96;100.00;101325.91;10335187;28;20057;-73
2024/02/15 07:54:33;;;;;;;1.27;1.27;;;;;;;11.93;100.00;101323.59;10334794;28;20042;-73
2024/02/15 07:59:33;;;;;;;1.40;1.40;;;;;;;11.99;100.00;101317.38;10335595;28;20350;-72
2024/02/15 08:04:40;;;;;;;1.48;1.48;;;;;;;11.97;100.00;101323.00;10334635;28;20054;-72
2024/02/15 08:09:41;;;;;;;0.60;0.60;;;;;;;11.94;100.00;101334.25;10332963;28;20030;-73
2024/02/15 08:14:42;;;;;;;1.25;1.25;;;;;;;11.96;100.00;101326.75;10349420;28;20076;-74
2024/02/15 08:19:43;;;;;;;1.13;0.82;;;;;;;11.96;100.00;101318.59;10334144;28;20150;-73
2024/02/15 08:24:43;;;;;;;0.77;0.77;;;;;;;12.08;100.00;101319.75;10333215;28;20069;-73
2024/02/15 08:29:44;;;;;;;0.95;0.95;;;;;;;12.13;100.00;101318.34;10333944;28;20069;-72
2024/02/15 08:34:44;;;;;;;0.50;0.50;;;;;;;12.10;100.00;101314.13;10333656;28;20463;-72
2024/02/15 08:39:45;;;;;;;1.05;1.05;;;;;;;12.09;100.00;101324.16;10333079;28;20455;-73
2024/02/15 08:44:45;;;;;;;0.60;0.60;;;;;;;11.99;100.00;101312.78;10333112;28;20049;-74
2024/02/15 08:49:45;;;;;;;1.75;1.65;;;;;;;12.01;100.00;101331.59;10333334;28;20084;-74
2024/02/15 08:54:46;;;;;;;1.40;1.40;;;;;;;12.05;100.00;101322.03;10333100;28;20049;-73
2024/02/15 08:59:46;;;;;;;0.65;0.65;;;;;;;12.10;100.00;101306.81;10332717;28;20460;-73
2024/02/15 09:04:47;;;;;;;0.73;0.73;;;;;;;12.19;100.00;101306.66;10333123;28;20038;-72
2024/02/15 09:09:47;;;;;;;1.05;1.05;;;;;;;12.22;100.00;101304.41;10330802;28;20034;-73
2024/02/15 09:14:47;;;;;;;1.27;1.27;;;;;;;12.19;100.00;101302.09;10332595;28;20042;-74
2024/02/15 09:19:51;;;;;;;0.60;0.60;;;;;;;12.30;100.00;101309.66;10332880;28;20057;-73
2024/02/15 09:24:51;;;;;;;1.95;1.80;;;;;;;12.38;100.00;101303.25;10331062;28;20068;-75
2024/02/15 09:29:51;;;;;;;0.93;0.93;;;;;;;12.49;100.00;101307.28;10330562;28;20108;-73
2024/02/15 09:34:52;;;;;;;0.75;0.75;;;;;;;12.60;100.00;101293.13;10347728;28;20137;-74
2024/02/15 09:39:52;;;;;;;10.20;2.08;;;;;;;12.66;100.00;101286.88;10331779;28;20104;-75
2024/02/15 09:44:53;;;;;;;1.55;1.50;;;;;;;12.90;100.00;101295.56;10329901;28;20093;-74
2024/02/15 09:49:53;;;;;;;0.60;0.60;;;;;;;12.75;100.00;101298.44;10331062;28;20039;-75
2024/02/15 09:54:54;;;;;;;1.00;1.00;;;;;;;12.86;100.00;101306.03;10333243;28;20444;-74
2024/02/15 09:59:54;;;;;;;0.70;0.70;;;;;;;12.99;100.00;101310.66;10314673;28;20045;-74
2024/02/15 10:04:58;;;;;;;0.80;0.80;;;;;;;13.27;100.00;101307.84;10329592;28;20030;-73
2024/02/15 10:10:13;;;;;;;1.02;1.02;;;;;;;13.19;100.00;101314.28;10331396;28;20398;-74
2024/02/15 10:15:34;;;;;;;0.98;0.98;;;;;;;13.43;100.00;101304.75;10330094;28;20034;-73
2024/02/15 10:20:37;;;;;;;2.47;2.38;;;;;;;13.43;100.00;101306.63;10331785;28;20088;-75
2024/02/15 10:25:38;;;;;;;2.78;1.35;;;;;;;13.58;100.00;101317.31;10330018;28;20097;-73
2024/02/15 10:30:39;;;;;;;1.52;1.50;;;;;;;13.76;100.00;101314.00;10331881;28;20053;-74
2024/02/15 10:35:39;;;;;;;1.13;1.13;;;;;;;13.92;100.00;101317.16;10333874;28;20112;-73
2024/02/15 10:40:43;;;;;;;0.85;0.85;;;;;;;13.99;100.00;101319.03;10337009;28;20030;-73
2024/02/15 10:45:44;;;;;;;0.88;0.88;;;;;;;13.98;100.00;101315.47;10336696;28;20073;-73
2024/02/15 10:50:46;;;;;;;0.60;0.60;;;;;;;14.08;100.00;101306.88;10321139;28;20065;-73
2024/02/15 10:55:52;;;;;;;0.90;0.90;;;;;;;14.13;100.00;101288.84;10337767;28;20093;-73
2024/02/15 11:00:53;;;;;;;0.60;0.60;;;;;;;14.26;100.00;101284.44;10336222;28;20034;-73
2024/02/15 11:05:55;;;;;;;4.95;3.67;;;;;;;14.36;100.00;101287.56;10338189;28;20038;-73
2024/02/15 11:10:58;;;;;;;0.57;0.57;;;;;;;14.55;100.00;101273.09;10336490;28;20371;-74
2024/02/15 11:15:59;;;;;;;0.73;0.73;;;;;;;14.82;100.00;101273.81;10335563;28;20030;-73
2024/02/15 11:21:00;;;;;;;0.70;0.70;;;;;;;14.88;100.00;101274.84;10336441;28;20382;-73
2024/02/15 11:26:00;;;;;;;0.80;0.80;;;;;;;15.08;100.00;101252.91;10336008;28;20459;-73
2024/02/15 11:31:03;;;;;;;0.70;0.70;;;;;;;15.59;100.00;101260.13;10336226;28;20051;-73
2024/02/15 11:36:07;;;;;;;1.05;1.05;;;;;;;15.91;100.00;101241.81;10335744;28;20408;-75
2024/02/15 11:41:11;;;;;;;0.80;0.80;;;;;;;15.93;100.00;101236.13;10335444;28;20113;-74
2024/02/15 11:46:20;;;;;;;1.15;1.15;;;;;;;15.55;100.00;101237.06;10333727;28;20030;-73
2024/02/15 11:51:42;;;;;;;0.60;0.60;;;;;;;15.30;100.00;101223.38;10334684;28;20034;-76
2024/02/15 11:56:54;;;;;;;3.65;2.25;;;;;;;15.38;100.00;101209.50;10318801;28;20042;-74
2024/02/15 12:23:12;;;;;;;0.50;0.50;;;;;;;17.99;100.00;101184.84;10334318;28;20038;-74
2024/02/15 12:28:13;;;;;;;5.40;1.90;;;;;;;17.86;100.00;101182.34;10333645;28;20072;-74
2024/02/15 12:33:19;;;;;;;0.50;0.50;;;;;;;17.75;100.00;101161.25;10316441;28;20054;-73
2024/02/15 12:38:20;;;;;;;0.65;0.65;;;;;;;17.89;100.00;101174.47;10333632;28;20536;-74
2024/02/15 12:43:20;;;;;;;0.60;0.60;;;;;;;18.35;100.00;101169.19;10332642;28;20103;-73
2024/02/15 12:48:21;;;;;;;3.55;3.25;;;;;;;18.85;100.00;101149.31;10349487;28;20065;-75
2024/02/15 12:53:22;;;;;;;3.35;2.83;;;;;;;18.67;100.00;101139.38;10315697;28;20077;-74
2024/02/15 12:58:26;;;;;;;2.03;1.90;;;;;;;18.56;100.00;101156.69;10331161;28;20041;-74
2024/02/15 13:03:26;;;;;;;2.50;2.30;;;;;;;18.53;100.00;101136.06;10333878;28;20065;-74
2024/02/15 13:08:27;;;;;;;3.53;2.53;;;;;;;18.18;100.00;101125.22;10332010;28;20034;-74
2024/02/15 13:13:27;;;;;;;4.55;2.60;;;;;;;17.39;100.00;101116.63;10333557;28;20470;-73
2024/02/15 13:18:28;;;;;;;1.77;1.63;;;;;;;16.83;100.00;101120.69;10332317;28;20046;-73
2024/02/15 13:23:30;;;;;;;3.08;1.65;;;;;;;17.10;100.00;101113.72;10315030;28;20038;-74
2024/02/15 13:28:30;;;;;;;5.40;2.42;;;;;;;17.40;100.00;101110.06;10332013;28;20038;-74
2024/02/15 13:33:31;;;;;;;2.17;2.08;;;;;;;17.76;100.00;101111.69;10330779;28;20463;-74
2024/02/15 13:38:32;;;;;;;10.73;2.65;;;;;;;17.96;100.00;101107.75;10332632;28;20425;-74
2024/02/15 13:43:32;;;;;;;2.28;2.13;;;;;;;18.32;100.00;101095.66;10331637;28;20042;-74
2024/02/15 13:48:32;;;;;;;2.75;2.55;;;;;;;17.94;100.00;101093.50;10331296;28;20117;-74
2024/02/15 13:53:34;;;;;;;4.93;2.47;;;;;;;17.64;100.00;101075.28;10331541;28;20042;-74
2024/02/15 13:58:35;;;;;;;8.15;3.30;;;;;;;17.92;100.00;101079.19;10331729;28;20054;-75
2024/02/15 14:03:35;;;;;;;6.75;3.45;;;;;;;17.47;100.00;101075.19;10331758;28;20038;-74
2024/02/15 14:08:35;;;;;;;5.82;3.67;;;;;;;17.32;100.00;101067.44;10333559;28;20121;-74
2024/02/15 14:13:36;;;;;;;3.95;3.10;;;;;;;17.15;100.00;101059.09;10338596;28;20129;-73
2024/02/15 14:18:36;;;;;;;5.80;3.03;;;;;;;16.79;100.00;101051.13;10338915;28;20066;-73
2024/02/15 14:23:37;;;;;;;5.22;3.33;;;;;;;16.68;100.00;101056.28;10338973;28;20088;-73
2024/02/15 14:28:41;;;;;;;7.10;4.45;;;;;;;16.50;100.00;101051.72;10338733;28;20466;-74
2024/02/15 14:33:41;;;;;;;10.07;3.92;;;;;;;16.37;100.00;101054.66;10338006;28;20055;-74
2024/02/15 14:38:41;;;;;;;6.82;3.45;;;;;;;16.13;100.00;101042.78;10338186;28;20367;-74
2024/02/15 14:43:43;;;;;;;14.30;4.45;;;;;;;16.10;100.00;101036.94;10353008;28;20042;-74
2024/02/15 14:48:46;;;;;;;5.03;3.63;;;;;;;16.07;100.00;101029.22;10338185;28;20035;-74
2024/02/15 14:53:47;;;;;;;8.02;3.40;;;;;;;16.04;100.00;101025.88;10337488;28;20505;-73
2024/02/15 14:58:48;;;;;;;5.22;2.78;;;;;;;15.85;100.00;101018.78;10337269;28;20038;-75
2024/02/15 15:03:54;;;;;;;4.20;3.15;;;;;;;15.87;100.00;101016.66;10337336;28;20042;-74
2024/02/15 15:14:14;;;;;;;7.75;3.08;;;;;;;15.76;100.00;101014.69;10336398;28;20437;-74
2024/02/15 15:19:14;;;;;;;3.45;2.33;;;;;;;15.79;100.00;101000.56;10336047;28;20038;-74
2024/02/15 15:24:15;;;;;;;5.45;3.03;;;;;;;15.75;100.00;100999.38;10336139;28;20042;-75
2024/02/15 15:29:16;;;;;;;6.03;3.10;;;;;;;15.78;100.00;100997.00;10336937;28;20387;-74
2024/02/15 15:34:16;;;;;;;4.32;2.78;;;;;;;15.71;100.00;100998.16;10335675;28;20042;-74
2024/02/15 15:39:16;;;;;;;2.63;2.35;;;;;;;15.63;100.00;100987.50;10336056;28;20034;-75
2024/02/15 15:44:17;;;;;;;2.90;2.65;;;;;;;15.61;100.00;100986.94;10318971;28;20046;-75
2024/02/15 15:49:18;;;;;;;6.18;2.28;;;;;;;15.53;100.00;100982.59;10335354;28;20121;-74
2024/02/15 15:54:19;;;;;;;7.90;4.25;;;;;;;15.52;100.00;100989.13;10335845;28;20042;-74
2024/02/15 15:59:19;;;;;;;5.53;2.97;;;;;;;15.53;100.00;100996.25;10335110;28;20379;-75
2024/02/15 16:04:22;;;;;;;13.10;3.00;;;;;;;15.45;100.00;100991.94;10333728;28;20026;-74
2024/02/15 16:09:22;;;;;;;6.28;3.65;;;;;;;15.42;100.00;100991.56;10334506;28;20474;-74
2024/02/15 16:14:23;;;;;;;2.63;2.42;;;;;;;15.35;100.00;100991.63;10335646;28;20118;-74
2024/02/15 16:19:23;;;;;;;4.45;3.63;;;;;;;15.25;100.00;100981.25;10333128;28;20097;-74
2024/02/15 16:24:23;;;;;;;5.05;3.60;;;;;;;15.21;100.00;100974.56;10334024;28;20042;-74
2024/02/15 16:29:24;;;;;;;6.13;4.30;;;;;;;15.07;100.00;100960.22;10334102;28;20101;-74
2024/02/15 16:34:24;;;;;;;8.57;3.80;;;;;;;15.08;100.00;100956.44;10333091;28;20034;-74
2024/02/15 16:39:25;;;;;;;9.60;4.05;;;;;;;15.03;100.00;100960.94;10334866;28;20454;-74
2024/02/15 16:44:25;;;;;;;6.55;3.50;;;;;;;14.92;100.00;100951.56;10333477;28;20046;-73
2024/02/15 16:49:26;;;;;;;12.18;3.35;;;;;;;14.86;100.00;100947.84;10334341;28;20038;-75
2024/02/15 16:54:26;;;;;;;4.22;2.50;;;;;;;14.75;100.00;100951.31;10333337;28;20079;-74
2024/02/15 16:59:27;;;;;;;3.72;2.28;;;;;;;14.64;100.00;100957.50;10331958;28;20125;-74
2024/02/15 17:04:27;;;;;;;4.03;2.28;;;;;;;14.64;100.00;100952.91;10331667;28;20125;-74
2024/02/15 17:09:28;;;;;;;3.60;3.03;;;;;;;14.63;100.00;100959.38;10332808;28;20125;-74
2024/02/15 17:14:28;;;;;;;5.35;2.75;;;;;;;14.60;100.00;100945.38;10333138;28;20038;-75
2024/02/15 17:19:30;;;;;;;10.38;3.72;;;;;;;14.52;100.00;100954.69;10331482;28;20034;-74
2024/02/15 17:24:31;;;;;;;5.97;2.78;;;;;;;14.50;100.00;100945.03;10332630;28;20065;-74
2024/02/15 17:29:31;;;;;;;2.38;2.17;;;;;;;14.47;100.00;100959.09;10332751;28;20051;-73
2024/02/15 17:34:32;;;;;;;2.40;2.05;;;;;;;14.45;100.00;100950.28;10332766;28;20038;-73
2024/02/15 17:39:32;;;;;;;7.43;1.88;;;;;;;14.38;100.00;100953.91;10333808;28;20120;-75
2024/02/15 17:44:33;;;;;;;2.90;2.15;;;;;;;14.33;100.00;100940.13;10336023;28;20030;-74
2024/02/15 17:49:33;;;;;;;3.95;2.47;;;;;;;14.31;100.00;100938.66;10341224;28;20454;-74
2024/02/15 17:54:34;;;;;;;4.47;3.08;;;;;;;14.23;100.00;100938.94;10342122;28;20128;-73
2024/02/15 17:59:34;;;;;;;2.72;2.53;;;;;;;14.28;100.00;100941.84;10339771;28;20517;-74
2024/02/15 18:04:35;;;;;;;3.47;2.70;;;;;;;14.24;100.00;100924.28;10340280;28;20043;-74
2024/02/15 18:09:36;;;;;;;2.38;2.25;;;;;;;14.18;100.00;100926.81;10340430;28;20041;-74
2024/02/15 18:14:36;;;;;;;4.47;2.90;;;;;;;14.11;100.00;100923.31;10339348;28;20038;-74
2024/02/15 18:19:36;;;;;;;3.40;2.42;;;;;;;14.11;100.00;100925.22;10339710;28;20431;-74
2024/02/15 18:24:37;;;;;;;2.22;2.03;;;;;;;14.02;100.00;100930.06;10338932;28;20049;-74
2024/02/15 18:29:37;;;;;;;4.45;1.92;;;;;;;14.09;100.00;100928.13;10338016;28;20421;-74
2024/02/15 18:34:37;;;;;;;3.60;2.25;;;;;;;14.03;100.00;100922.72;10339138;28;20042;-74
2024/02/15 18:39:40;;;;;;;5.30;3.05;;;;;;;14.10;100.00;100913.47;10338999;28;20034;-75
2024/02/15 18:44:40;;;;;;;2.90;2.42;;;;;;;14.00;100.00;100910.38;10338423;28;20072;-74
2024/02/15 18:49:40;;;;;;;3.20;2.88;;;;;;;13.99;100.00;100899.72;10339072;28;20061;-74
2024/02/15 18:54:41;;;;;;;9.18;2.45;;;;;;;13.98;100.00;100898.91;10338143;28;20127;-75
2024/02/15 18:59:41;;;;;;;4.00;2.00;;;;;;;13.97;100.00;100894.50;10337703;28;20061;-74
2024/02/15 19:04:41;;;;;;;3.70;2.63;;;;;;;13.82;100.00;100892.09;10336441;28;20460;-74
2024/02/15 19:09:42;;;;;;;5.05;3.30;;;;;;;13.76;100.00;100873.09;10337245;28;20050;-74
2024/02/15 19:14:42;;;;;;;8.70;2.75;;;;;;;13.64;100.00;100870.22;10336497;28;20097;-74
2024/02/15 19:19:43;;;;;;;2.33;2.20;;;;;;;13.58;100.00;100861.03;10338352;28;20081;-75
2024/02/15 19:24:43;;;;;;;4.22;2.22;;;;;;;13.60;100.00;100869.00;10336906;28;20042;-74
2024/02/15 19:29:44;;;;;;;3.30;2.83;;;;;;;13.62;100.00;100877.75;10337444;28;20114;-75
2024/02/15 19:34:44;;;;;;;5.40;2.85;;;;;;;13.61;100.00;100867.94;10337944;28;20117;-74
2024/02/15 19:39:48;;;;;;;3.00;2.70;;;;;;;13.70;100.00;100880.22;10335998;28;20372;-75
2024/02/15 19:44:49;;;;;;;3.03;2.53;;;;;;;13.68;100.00;100861.38;10335478;28;20101;-73
2024/02/15 19:49:49;;;;;;;4.00;2.67;;;;;;;13.68;100.00;100872.28;10335940;28;20047;-76
2024/02/15 19:54:50;;;;;;;4.95;2.78;;;;;;;13.69;100.00;100857.63;10335233;28;20046;-76
2024/02/15 19:59:50;;;;;;;2.67;2.47;;;;;;;13.65;100.00;100845.50;10335342;28;20089;-76
2024/02/15 20:04:50;;;;;;;11.82;1.85;;;;;;;13.62;100.00;100828.78;10335249;28;20034;-74
2024/02/15 20:09:51;;;;;;;2.00;1.90;;;;;;;13.63;100.00;100838.63;10335673;28;20117;-74
2024/02/15 20:14:51;;;;;;;2.45;2.25;;;;;;;13.60;100.00;100829.00;10339861;28;20037;-74
2024/02/15 20:19:52;;;;;;;8.52;1.95;;;;;;;13.52;100.00;100829.25;10334943;28;20094;-75
2024/02/15 20:24:52;;;;;;;2.85;2.60;;;;;;;13.41;100.00;100829.97;10335046;28;20078;-74
2024/02/15 20:29:52;;;;;;;2.40;2.15;;;;;;;13.36;100.00;100824.34;10333478;28;20109;-74
2024/02/15 20:34:53;;;;;;;5.13;2.35;;;;;;;13.44;100.00;100827.63;10332740;28;20073;-75
2024/02/15 20:39:53;;;;;;;2.15;2.00;;;;;;;13.52;100.00;100817.53;10334335;28;20066;-74
2024/02/15 20:44:54;;;;;;;3.05;2.10;;;;;;;13.45;100.00;100828.47;10333076;28;20042;-76
2024/02/15 20:49:54;;;;;;;3.33;2.70;;;;;;;13.44;100.00;100808.59;10332247;28;20480;-75
2024/02/15 20:54:55;;;;;;;2.83;2.08;;;;;;;13.38;100.00;100820.34;10333650;28;20049;-74
2024/02/15 20:59:55;;;;;;;4.70;2.53;;;;;;;13.34;100.00;100821.03;10333563;28;20466;-74
2024/02/15 21:04:56;;;;;;;2.92;2.33;;;;;;;13.32;100.00;100820.41;10333186;28;20073;-74
2024/02/15 21:09:56;;;;;;;3.25;2.40;;;;;;;13.25;100.00;100812.28;10332802;28;20092;-75
2024/02/15 21:14:57;;;;;;;3.22;2.70;;;;;;;13.25;100.00;100807.66;10333378;28;20039;-74
2024/02/15 21:19:57;;;;;;;6.35;2.80;;;;;;;13.13;100.00;100808.53;10332296;28;20038;-74
2024/02/15 21:24:58;;;;;;;2.30;2.13;;;;;;;13.07;100.00;100828.44;10332068;28;20093;-75
2024/02/15 21:29:58;;;;;;;3.13;2.85;;;;;;;12.99;100.00;100822.19;10333124;28;20089;-74
2024/02/15 21:35:02;;;;;;;3.35;1.92;;;;;;;12.88;100.00;100832.88;10333736;28;20038;-75
2024/02/15 21:40:06;;;;;;;3.25;2.88;;;;;;;12.91;100.00;100824.31;10332285;28;20038;-75
2024/02/15 21:45:07;;;;;;;3.53;3.28;;;;;;;12.93;100.00;100833.09;10331928;28;20112;-75
2024/02/15 21:50:07;;;;;;;4.88;2.15;;;;;;;12.85;100.00;100825.16;10332136;28;20042;-74
2024/02/15 21:55:08;;;;;;;2.10;2.00;;;;;;;12.86;100.00;100829.53;10332009;28;20050;-74
2024/02/15 22:00:09;;;;;;;3.70;2.15;;;;;;;12.79;100.00;100819.56;10331957;28;20050;-75
2024/02/15 22:05:10;;;;;;;3.45;2.55;;;;;;;12.80;100.00;100814.94;10332775;28;20042;-75
2024/02/15 22:10:11;;;;;;;3.15;2.78;;;;;;;12.74;100.00;100822.06;10332018;28;20089;-76
2024/02/15 22:15:11;;;;;;;4.25;2.83;;;;;;;12.77;100.00;100820.81;10331526;28;20038;-75
2024/02/15 22:20:12;;;;;;;2.70;2.50;;;;;;;12.71;100.00;100817.06;10332240;28;20451;-75
2024/02/15 22:25:14;;;;;;;3.20;2.90;;;;;;;12.66;100.00;100818.75;10330690;28;20030;-75
2024/02/15 22:30:14;;;;;;;4.13;3.22;;;;;;;12.63;100.00;100809.13;10333797;28;20055;-74
2024/02/15 22:35:15;;;;;;;2.63;2.42;;;;;;;12.78;100.00;100817.03;10338502;28;20459;-74
2024/02/15 22:40:16;;;;;;;4.97;3.13;;;;;;;12.79;100.00;100816.84;10353709;28;20125;-73
2024/02/15 22:45:16;;;;;;;2.85;2.35;;;;;;;12.77;100.00;100815.38;10339660;28;20037;-74
2024/02/15 22:50:16;;;;;;;3.63;3.03;;;;;;;12.77;100.00;100809.94;10338267;28;20049;-74
2024/02/15 22:55:17;;;;;;;6.47;3.70;;;;;;;12.70;100.00;100812.69;10337829;28;20061;-75
2024/02/15 23:00:17;;;;;;;4.20;3.17;;;;;;;12.69;100.00;100810.16;10338317;28;20042;-74
2024/02/15 23:05:19;;;;;;;3.60;2.85;;;;;;;12.60;100.00;100803.28;10336848;28;20483;-74
2024/02/15 23:10:19;;;;;;;6.90;3.25;;;;;;;12.69;100.00;100802.84;10336929;28;20057;-74
2024/02/15 23:15:19;;;;;;;3.65;3.35;;;;;;;12.74;100.00;100805.75;10337138;28;20374;-74
2024/02/15 23:20:20;;;;;;;8.25;3.08;;;;;;;12.69;100.00;100816.41;10336359;28;20031;-74
2024/02/15 23:25:21;;;;;;;4.88;3.35;;;;;;;12.68;100.00;100811.22;10337311;28;20038;-74
2024/02/15 23:30:22;;;;;;;2.80;2.60;;;;;;;12.58;100.00;100808.94;10335927;28;20490;-74